Time;durP1;ratioP1;P1;durP2;ratioP2;P2;SDS_P1;SDS_P2;PMS_P1;PMS_P2;Temp;Humidity;BMP_temperature;BMP_pressure;BME280_temperature;BME280_humidity;BME280_pressure;Samples;Min_cycle;Max_cycle;Signal;HPM_P1;HPM_P2
2022/01/22 00:01:46;;;;;;;23.15;2.75;;;6.20;99.90;;;;;;5062300;28;20528;-85
2022/01/22 00:04:12;;;;;;;18.63;2.67;;;6.20;99.90;;;;;;5063350;28;20378;-85
2022/01/22 00:06:37;;;;;;;27.73;3.00;;;6.20;99.90;;;;;;5059671;28;20100;-85
2022/01/22 00:09:04;;;;;;;18.42;2.20;;;6.20;99.90;;;;;;5057357;28;20051;-84
2022/01/22 00:11:35;;;;;;;18.40;3.15;;;6.20;99.90;;;;;;5057776;28;20401;-84
2022/01/22 00:16:45;;;;;;;30.75;3.55;;;6.20;99.90;;;;;;5063621;28;20055;-84
2022/01/22 00:19:10;;;;;;;22.13;2.97;;;6.20;99.90;;;;;;5057565;28;20056;-84
2022/01/22 00:21:37;;;;;;;18.83;2.78;;;6.20;99.90;;;;;;5067165;28;20507;-85
2022/01/22 00:24:08;;;;;;;19.38;3.20;;;6.20;99.90;;;;;;5042011;28;20036;-85
2022/01/22 00:26:33;;;;;;;17.63;2.45;;;6.20;99.90;;;;;;5040357;28;20499;-85
2022/01/22 00:28:59;;;;;;;27.23;2.72;;;6.20;99.90;;;;;;5059919;28;20138;-84
2022/01/22 00:31:24;;;;;;;19.08;2.53;;;6.30;99.90;;;;;;5040666;28;20036;-84
2022/01/22 00:33:50;;;;;;;16.67;2.08;;;6.30;99.90;;;;;;5041217;28;20035;-85
2022/01/22 00:36:16;;;;;;;9.25;1.92;;;6.20;99.90;;;;;;5070568;28;20032;-84
2022/01/22 00:38:42;;;;;;;21.45;2.42;;;6.30;99.90;;;;;;5063715;28;20688;-85
2022/01/22 00:41:07;;;;;;;20.58;2.42;;;6.30;99.90;;;;;;5060542;28;20115;-85
2022/01/22 00:43:33;;;;;;;14.85;2.25;;;6.30;99.90;;;;;;5044972;28;20040;-85
2022/01/22 00:45:59;;;;;;;17.77;3.05;;;6.30;99.90;;;;;;5056619;28;20036;-85
2022/01/22 00:48:25;;;;;;;13.93;2.80;;;6.30;99.90;;;;;;5063266;28;20109;-83
2022/01/22 00:50:54;;;;;;;18.73;2.63;;;6.30;99.90;;;;;;5061665;28;20032;-85
2022/01/22 00:53:20;;;;;;;11.13;2.10;;;6.30;99.90;;;;;;5060992;28;20043;-85
2022/01/22 00:55:45;;;;;;;14.80;2.70;;;6.30;99.90;;;;;;5043116;28;20047;-85
2022/01/22 00:58:11;;;;;;;14.07;2.53;;;6.40;99.90;;;;;;5051389;28;20042;-84
2022/01/22 01:00:36;;;;;;;19.13;2.50;;;6.30;99.90;;;;;;5048095;28;20068;-84
2022/01/22 01:03:02;;;;;;;20.30;2.65;;;6.30;99.90;;;;;;5061923;28;20107;-84
2022/01/22 01:05:28;;;;;;;12.95;2.38;;;6.30;99.90;;;;;;5046025;28;20025;-85
2022/01/22 01:07:53;;;;;;;15.77;2.92;;;6.30;99.90;;;;;;5072964;28;20042;-85
2022/01/22 01:10:20;;;;;;;18.58;3.10;;;6.30;99.90;;;;;;5059979;28;20064;-85
2022/01/22 01:12:47;;;;;;;10.57;2.70;;;6.40;99.90;;;;;;5064219;28;20051;-85
2022/01/22 01:34:00;;;;;;;9.00;1.88;;;6.30;99.90;;;;;;5062523;28;20591;-84
2022/01/22 01:36:26;;;;;;;12.23;2.78;;;6.40;99.90;;;;;;5071234;28;20485;-85
2022/01/22 01:38:56;;;;;;;11.63;1.58;;;6.30;99.90;;;;;;5065840;28;20167;-85
2022/01/22 01:41:43;;;;;;;10.73;1.75;;;6.30;99.90;;;;;;5067709;28;20036;-85
2022/01/22 01:44:10;;;;;;;9.43;1.80;;;6.30;99.90;;;;;;5063727;28;20051;-85
2022/01/22 01:46:35;;;;;;;10.77;2.28;;;6.30;99.90;;;;;;5051728;28;20051;-85
2022/01/22 01:49:03;;;;;;;13.05;2.58;;;6.30;99.90;;;;;;5047800;28;20029;-86
2022/01/22 01:51:31;;;;;;;13.52;2.15;;;6.30;99.90;;;;;;5055236;28;20113;-85
2022/01/22 01:54:27;;;;;;;19.30;2.83;;;6.30;99.90;;;;;;5043429;28;20044;-85
2022/01/22 01:59:27;;;;;;;;;;;6.30;99.90;;;;;;5067644;28;20043;-86
2022/01/22 02:01:53;;;;;;;13.02;2.33;;;6.30;99.90;;;;;;5064176;28;19920;-85
2022/01/22 02:04:18;;;;;;;12.75;1.85;;;6.20;99.90;;;;;;5062717;28;20119;-85
2022/01/22 02:06:43;;;;;;;9.85;1.55;;;6.30;99.90;;;;;;5083355;28;20043;-85
2022/01/22 02:09:10;;;;;;;10.75;1.65;;;6.30;99.90;;;;;;5046102;28;20413;-86
2022/01/22 02:11:38;;;;;;;12.10;1.85;;;6.20;99.90;;;;;;5054851;28;20048;-86
2022/01/22 02:23:30;;;;;;;14.70;2.50;;;6.30;99.90;;;;;;5051902;28;20051;-86
2022/01/22 02:25:09;;;;;;;9.85;1.50;;;6.20;99.90;;;;;;5064237;28;20421;-85
2022/01/22 02:27:34;;;;;;;10.00;1.80;;;6.20;99.90;;;;;;5048094;28;20029;-85
2022/01/22 02:30:00;;;;;;;13.18;2.13;;;6.20;99.90;;;;;;5045236;28;20040;-86
2022/01/22 02:32:53;;;;;;;11.90;1.60;;;6.20;99.90;;;;;;5063157;28;20051;-86
2022/01/22 02:35:32;;;;;;;11.57;2.30;;;6.20;99.90;;;;;;5061933;28;20496;-86
2022/01/22 02:38:07;;;;;;;11.35;2.03;;;6.20;99.90;;;;;;5062845;28;20063;-86
2022/01/22 02:40:42;;;;;;;15.45;2.42;;;6.20;99.90;;;;;;5052533;28;20051;-86
2022/01/22 02:43:10;;;;;;;8.27;1.60;;;6.20;99.90;;;;;;5059721;28;20414;-86
2022/01/22 02:45:36;;;;;;;5.70;1.30;;;6.20;99.90;;;;;;5047906;28;20060;-85
2022/01/22 02:48:01;;;;;;;8.02;1.63;;;6.20;99.90;;;;;;5061687;28;20109;-85
2022/01/22 02:50:27;;;;;;;9.07;1.73;;;6.30;99.90;;;;;;5053898;28;20166;-86
2022/01/22 02:52:52;;;;;;;10.68;1.70;;;6.20;99.90;;;;;;5067846;28;20409;-85
2022/01/22 02:55:18;;;;;;;8.35;1.70;;;6.20;99.90;;;;;;5064239;28;20044;-86
2022/01/22 02:57:45;;;;;;;7.15;1.40;;;6.20;99.90;;;;;;5059624;28;20040;-86
2022/01/22 03:00:16;;;;;;;5.03;1.15;;;6.20;99.90;;;;;;5057643;28;20109;-86
2022/01/22 03:02:41;;;;;;;8.82;1.40;;;6.10;99.90;;;;;;5057453;28;20136;-86
2022/01/22 03:05:07;;;;;;;7.43;1.00;;;6.10;99.90;;;;;;5059651;28;20056;-85
2022/01/22 03:07:34;;;;;;;6.93;0.88;;;6.10;99.90;;;;;;5042459;28;20064;-85
2022/01/22 03:10:03;;;;;;;8.82;1.23;;;6.20;99.90;;;;;;5056127;28;20490;-86
2022/01/22 03:20:05;;;;;;;11.15;1.95;;;6.10;99.90;;;;;;5067092;28;20127;-86
2022/01/22 03:27:47;;;;;;;8.85;2.00;;;6.10;99.90;;;;;;5065973;28;20108;-85
2022/01/22 03:30:12;;;;;;;7.70;1.65;;;6.10;99.90;;;;;;5054093;28;20556;-86
2022/01/22 03:32:44;;;;;;;5.68;1.17;;;6.10;99.90;;;;;;5063810;28;20067;-86
2022/01/22 03:35:23;;;;;;;5.22;1.48;;;6.10;99.90;;;;;;5060000;28;20040;-87
2022/01/22 03:37:52;;;;;;;7.75;2.10;;;6.10;99.90;;;;;;5049325;28;20078;-85
2022/01/22 03:40:23;;;;;;;10.40;1.98;;;6.10;99.90;;;;;;5059988;28;20037;-85
2022/01/22 03:42:50;;;;;;;12.00;2.00;;;6.10;99.90;;;;;;5043890;28;20440;-85
2022/01/22 03:45:17;;;;;;;8.95;1.90;;;6.10;99.90;;;;;;5066302;28;20102;-85
2022/01/22 03:47:43;;;;;;;13.07;2.40;;;6.10;99.90;;;;;;5049998;28;21800;-86
2022/01/22 03:50:10;;;;;;;10.13;1.60;;;6.20;99.90;;;;;;5059547;28;20032;-87
2022/01/22 03:52:35;;;;;;;5.88;1.33;;;6.20;99.90;;;;;;5061329;28;20044;-85
2022/01/22 03:55:02;;;;;;;8.95;1.63;;;6.10;99.90;;;;;;5057004;28;20043;-86
2022/01/22 03:57:27;;;;;;;7.72;1.17;;;6.10;99.90;;;;;;5054209;28;20071;-84
2022/01/22 03:59:55;;;;;;;7.15;1.27;;;6.20;99.90;;;;;;5044090;28;20192;-85
2022/01/22 04:04:57;;;;;;;6.55;1.38;;;6.10;99.90;;;;;;5062397;28;20045;-85
2022/01/22 04:09:55;;;;;;;6.97;1.45;;;6.10;99.90;;;;;;5059038;28;20131;-85
2022/01/22 04:12:28;;;;;;;8.88;1.40;;;6.20;99.90;;;;;;5070155;28;20044;-85
2022/01/22 04:15:00;;;;;;;8.88;1.25;;;6.10;99.90;;;;;;5064451;28;20040;-85
2022/01/22 04:25:29;;;;;;;9.68;1.30;;;6.10;99.90;;;;;;5067824;28;20073;-85
2022/01/22 04:27:56;;;;;;;15.75;1.17;;;6.10;99.90;;;;;;5066031;28;20120;-84
2022/01/22 04:30:22;;;;;;;9.15;0.90;;;6.10;99.90;;;;;;5057036;28;20032;-85
2022/01/22 04:32:48;;;;;;;10.32;1.35;;;6.10;99.90;;;;;;5074011;28;20505;-85
2022/01/22 04:35:14;;;;;;;6.28;0.80;;;6.10;99.90;;;;;;5065695;28;20047;-86
2022/01/22 04:37:40;;;;;;;8.80;1.17;;;6.10;99.90;;;;;;5071333;28;20039;-86
2022/01/22 04:40:07;;;;;;;6.13;1.00;;;6.00;99.90;;;;;;5064884;28;20050;-84
2022/01/22 04:42:35;;;;;;;7.53;1.00;;;6.00;99.90;;;;;;5051054;28;20035;-85
2022/01/22 04:48:11;;;;;;;8.23;0.80;;;6.00;99.90;;;;;;5067290;28;20039;-85
2022/01/22 04:55:46;;;;;;;7.75;1.00;;;6.00;99.90;;;;;;5067519;28;20040;-85
2022/01/22 04:58:12;;;;;;;7.60;1.30;;;6.00;99.90;;;;;;5046914;28;20111;-84
2022/01/22 05:00:41;;;;;;;5.88;1.30;;;6.00;99.90;;;;;;5076625;28;20036;-85
2022/01/22 05:03:07;;;;;;;7.07;1.30;;;6.00;99.90;;;;;;5072851;28;20060;-85
2022/01/22 05:05:33;;;;;;;7.28;1.17;;;6.10;99.90;;;;;;5066765;28;20028;-85
2022/01/22 05:07:58;;;;;;;16.15;1.58;;;6.00;99.90;;;;;;5070904;28;20038;-85
2022/01/22 05:10:25;;;;;;;9.32;1.15;;;6.00;99.90;;;;;;5063049;28;20036;-85
2022/01/22 05:12:52;;;;;;;12.55;1.80;;;6.00;99.90;;;;;;5076933;28;20065;-85
2022/01/22 05:15:19;;;;;;;9.18;1.10;;;6.00;99.90;;;;;;5074055;28;20093;-85
2022/01/22 05:17:46;;;;;;;15.35;1.42;;;6.10;99.90;;;;;;5063230;28;20119;-85
2022/01/22 05:20:31;;;;;;;8.77;1.30;;;6.00;99.90;;;;;;5070693;28;20467;-85
2022/01/22 05:23:03;;;;;;;12.48;1.13;;;6.00;99.90;;;;;;5040453;28;20037;-85
2022/01/22 05:25:38;;;;;;;15.23;1.20;;;6.10;99.90;;;;;;5065380;28;20067;-86
2022/01/22 05:30:56;;;;;;;9.32;1.23;;;6.00;99.90;;;;;;5061452;28;20044;-85
2022/01/22 05:36:56;;;;;;;;;;;6.00;99.90;;;;;;5070449;28;20119;-85
2022/01/22 05:39:09;;;;;;;12.80;1.98;;;6.00;99.90;;;;;;5065106;28;20054;-85
2022/01/22 05:41:35;;;;;;;13.10;1.30;;;6.00;99.90;;;;;;5047982;28;20029;-85
2022/01/22 05:44:00;;;;;;;7.57;1.00;;;5.90;99.90;;;;;;5067925;28;20501;-85
2022/01/22 05:46:26;;;;;;;14.63;1.63;;;6.00;99.90;;;;;;5059494;28;20029;-84
2022/01/22 05:48:51;;;;;;;12.48;1.15;;;5.90;99.90;;;;;;5067372;28;20086;-84
2022/01/22 05:51:18;;;;;;;5.90;1.20;;;6.00;99.90;;;;;;5059455;28;20032;-84
2022/01/22 05:54:01;;;;;;;11.32;1.40;;;5.90;99.90;;;;;;5066381;28;20048;-84
2022/01/22 06:01:57;;;;;;;7.90;1.40;;;6.00;99.90;;;;;;5058458;28;20075;-84
2022/01/22 06:04:23;;;;;;;8.88;1.55;;;6.00;99.90;;;;;;5076284;28;20101;-84
2022/01/22 06:06:48;;;;;;;8.40;1.80;;;6.00;99.90;;;;;;5067446;28;20385;-84
2022/01/22 06:09:14;;;;;;;11.48;1.70;;;6.10;99.90;;;;;;5065896;28;20097;-84
2022/01/22 06:11:56;;;;;;;12.20;1.80;;;6.00;99.90;;;;;;5057897;28;20078;-84
2022/01/22 06:14:22;;;;;;;13.38;1.92;;;6.00;99.90;;;;;;5065661;28;20509;-84
2022/01/22 06:16:47;;;;;;;13.02;2.13;;;6.00;99.90;;;;;;5051171;28;20032;-84
2022/01/22 06:19:13;;;;;;;11.38;1.67;;;6.00;99.90;;;;;;5064341;28;20051;-84
2022/01/22 06:21:39;;;;;;;9.07;1.92;;;6.00;99.90;;;;;;5069842;28;20047;-83
2022/01/22 06:24:05;;;;;;;14.50;1.80;;;6.00;99.90;;;;;;5058217;28;20477;-84
2022/01/22 06:26:30;;;;;;;7.47;1.55;;;6.00;99.90;;;;;;5054946;28;20036;-85
2022/01/22 06:28:56;;;;;;;6.88;1.25;;;6.00;99.90;;;;;;5062777;28;20032;-84
2022/01/22 06:31:21;;;;;;;7.85;1.92;;;6.00;99.90;;;;;;5067440;28;20056;-84
2022/01/22 06:33:47;;;;;;;11.02;1.90;;;6.10;99.90;;;;;;5057629;28;20509;-83
2022/01/22 06:36:13;;;;;;;5.07;1.48;;;6.00;99.90;;;;;;5065219;28;20043;-84
2022/01/22 06:38:38;;;;;;;10.48;2.03;;;6.00;99.90;;;;;;5059875;28;20107;-84
2022/01/22 06:43:48;;;;;;;;;;;6.00;99.90;;;;;;5063411;28;20113;-85
2022/01/22 06:46:14;;;;;;;9.13;1.70;;;5.90;99.90;;;;;;5044682;28;19917;-84
2022/01/22 06:48:39;;;;;;;13.23;1.80;;;5.90;99.90;;;;;;5059063;28;20635;-84
2022/01/22 06:51:05;;;;;;;9.60;1.80;;;5.90;99.90;;;;;;5039238;28;20051;-84
2022/01/22 06:53:35;;;;;;;9.10;2.25;;;6.00;99.90;;;;;;5067571;28;20104;-84
2022/01/22 06:56:03;;;;;;;10.75;2.10;;;6.00;99.90;;;;;;5068479;28;20111;-84
2022/01/22 06:58:28;;;;;;;7.32;1.80;;;5.90;99.90;;;;;;5067546;28;20427;-86
2022/01/22 07:00:54;;;;;;;11.60;1.90;;;6.00;99.90;;;;;;5065323;28;20082;-84
2022/01/22 07:03:19;;;;;;;6.30;1.60;;;5.90;99.90;;;;;;5072312;28;20036;-84
2022/01/22 07:05:45;;;;;;;6.72;2.08;;;5.90;99.90;;;;;;5043158;28;20032;-84
2022/01/22 07:08:13;;;;;;;7.85;1.60;;;5.90;99.90;;;;;;5054551;28;20036;-85
2022/01/22 07:10:39;;;;;;;5.93;1.70;;;5.90;99.90;;;;;;5048849;28;20068;-85
2022/01/22 07:13:04;;;;;;;3.75;0.90;;;5.90;99.90;;;;;;5064413;28;20528;-84
2022/01/22 07:15:32;;;;;;;6.18;1.52;;;5.90;99.90;;;;;;5047826;28;20031;-84
2022/01/22 07:17:58;;;;;;;5.15;1.40;;;5.90;99.90;;;;;;5050675;28;20040;-84
2022/01/22 07:20:28;;;;;;;7.10;1.70;;;5.90;99.90;;;;;;5045435;28;20036;-84
2022/01/22 07:23:14;;;;;;;6.00;1.40;;;5.80;99.90;;;;;;5050203;28;20036;-84
2022/01/22 07:25:40;;;;;;;7.25;1.60;;;5.80;99.90;;;;;;5069401;28;20040;-84
2022/01/22 07:28:15;;;;;;;5.72;1.48;;;5.80;99.90;;;;;;5069978;28;20028;-84
2022/01/22 07:30:40;;;;;;;11.13;1.80;;;5.80;99.90;;;;;;5064794;28;20398;-84
2022/01/22 07:33:06;;;;;;;6.03;1.85;;;5.80;99.90;;;;;;5055213;28;20065;-84
2022/01/22 07:35:35;;;;;;;9.88;1.80;;;5.80;99.90;;;;;;5064136;28;20039;-86
2022/01/22 07:38:02;;;;;;;11.18;1.75;;;5.80;99.90;;;;;;5039161;28;20074;-83
2022/01/22 07:40:28;;;;;;;5.47;2.00;;;5.80;99.90;;;;;;5062428;28;20043;-83
2022/01/22 07:42:55;;;;;;;5.95;1.80;;;5.70;99.90;;;;;;5072287;28;20040;-84
2022/01/22 07:45:21;;;;;;;7.35;2.08;;;5.70;99.90;;;;;;5052942;28;20161;-84
2022/01/22 07:47:46;;;;;;;12.35;1.88;;;5.70;99.90;;;;;;5061071;28;20138;-84
2022/01/22 07:50:12;;;;;;;5.78;1.48;;;5.80;99.90;;;;;;5066503;28;20036;-83
2022/01/22 07:52:37;;;;;;;7.35;1.30;;;5.70;99.90;;;;;;5066894;28;20570;-84
2022/01/22 07:55:04;;;;;;;4.55;1.33;;;5.70;99.90;;;;;;5057613;28;20413;-84
2022/01/22 07:57:29;;;;;;;6.32;1.40;;;5.70;99.90;;;;;;5058177;28;20033;-84
2022/01/22 07:59:55;;;;;;;6.45;1.23;;;5.70;99.90;;;;;;5053846;28;20118;-84
2022/01/22 08:02:20;;;;;;;4.38;1.30;;;5.70;99.90;;;;;;5046881;28;20043;-85
2022/01/22 08:04:46;;;;;;;5.80;1.60;;;5.60;99.90;;;;;;5073793;28;20032;-84
2022/01/22 08:07:12;;;;;;;7.80;1.40;;;5.60;99.90;;;;;;5074103;28;20048;-84
2022/01/22 08:09:37;;;;;;;6.90;1.95;;;5.70;99.90;;;;;;5063048;28;20044;-85
2022/01/22 08:12:03;;;;;;;3.72;1.23;;;5.60;99.90;;;;;;5050388;28;20047;-84
2022/01/22 08:14:29;;;;;;;7.05;1.23;;;5.60;99.90;;;;;;5072721;28;20448;-84
2022/01/22 08:16:55;;;;;;;6.75;1.52;;;5.60;99.90;;;;;;5065001;28;20167;-85
2022/01/22 08:19:20;;;;;;;11.32;1.40;;;5.70;99.90;;;;;;5072502;28;20505;-84
2022/01/22 08:21:47;;;;;;;9.98;1.35;;;5.60;99.90;;;;;;5056449;28;20043;-84
2022/01/22 08:24:13;;;;;;;12.13;1.30;;;5.70;99.90;;;;;;5064069;28;20053;-84
2022/01/22 08:26:46;;;;;;;8.70;1.33;;;5.70;99.90;;;;;;5056008;28;20032;-84
2022/01/22 08:29:12;;;;;;;6.30;1.42;;;5.60;99.90;;;;;;5055443;28;20166;-84
2022/01/22 08:31:42;;;;;;;9.45;1.42;;;5.70;99.90;;;;;;5055526;28;20127;-84
2022/01/22 08:36:54;;;;;;;6.50;1.38;;;5.60;99.90;;;;;;5068422;28;20079;-84
2022/01/22 08:39:20;;;;;;;13.43;1.60;;;5.70;99.90;;;;;;5060559;28;20060;-85
2022/01/22 08:41:46;;;;;;;7.65;2.10;;;5.70;99.90;;;;;;5058194;28;20036;-85
2022/01/22 08:44:13;;;;;;;9.70;1.40;;;5.70;99.90;;;;;;5062654;28;20047;-85
2022/01/22 08:46:39;;;;;;;10.05;1.38;;;5.70;99.90;;;;;;5060088;28;20036;-84
2022/01/22 08:49:06;;;;;;;6.30;1.17;;;5.70;99.90;;;;;;5069838;28;20036;-85
2022/01/22 08:51:37;;;;;;;9.88;2.20;;;5.70;99.90;;;;;;5053493;28;20047;-84
2022/01/22 08:54:04;;;;;;;11.02;1.80;;;5.80;99.90;;;;;;5053591;28;20043;-85
2022/01/22 08:56:30;;;;;;;6.55;1.27;;;5.80;99.90;;;;;;5069862;28;20032;-84
2022/01/22 08:58:56;;;;;;;10.07;2.17;;;5.80;99.90;;;;;;5056929;28;20532;-84
2022/01/22 09:01:23;;;;;;;6.90;1.55;;;5.80;99.90;;;;;;5053571;28;20032;-85
2022/01/22 09:03:49;;;;;;;9.15;1.75;;;5.80;99.90;;;;;;5069132;28;20035;-85
2022/01/22 09:06:17;;;;;;;13.18;2.25;;;5.80;99.90;;;;;;5058551;28;20516;-85
2022/01/22 09:08:44;;;;;;;15.13;1.80;;;5.80;99.90;;;;;;5070897;28;20090;-84
2022/01/22 09:11:11;;;;;;;8.93;1.85;;;5.90;99.90;;;;;;5069221;28;20047;-84
2022/01/22 09:13:36;;;;;;;9.77;1.67;;;5.80;99.90;;;;;;5071991;28;20121;-85
2022/01/22 09:16:02;;;;;;;13.70;2.28;;;5.90;99.90;;;;;;5045511;28;20048;-85
2022/01/22 09:18:28;;;;;;;10.00;1.75;;;5.90;99.90;;;;;;5069673;28;20044;-85
2022/01/22 09:23:19;;;;;;;11.40;2.20;;;5.90;99.90;;;;;;5076845;28;20036;-85
2022/01/22 09:25:46;;;;;;;12.88;2.28;;;5.90;99.90;;;;;;5076513;28;20126;-85
2022/01/22 09:28:16;;;;;;;9.18;2.20;;;5.90;99.90;;;;;;5076665;28;20370;-85
2022/01/22 09:30:43;;;;;;;11.60;2.17;;;5.90;99.90;;;;;;5070874;28;20040;-85
2022/01/22 09:33:09;;;;;;;19.45;2.95;;;5.90;99.90;;;;;;5074521;28;20040;-85
2022/01/22 09:35:34;;;;;;;12.35;2.33;;;6.00;99.90;;;;;;5070523;28;20053;-85
2022/01/22 09:38:00;;;;;;;20.88;2.78;;;6.00;99.90;;;;;;5081524;28;20039;-85
2022/01/22 09:40:27;;;;;;;12.77;2.97;;;6.00;99.90;;;;;;5093054;28;20047;-85
2022/01/22 09:42:53;;;;;;;12.63;2.80;;;6.00;99.90;;;;;;5093267;28;20112;-85
2022/01/22 09:45:21;;;;;;;15.20;2.83;;;6.10;99.90;;;;;;5063915;28;20709;-86
2022/01/22 09:47:48;;;;;;;12.60;2.88;;;6.10;99.90;;;;;;5040032;28;20041;-86
2022/01/22 09:50:20;;;;;;;14.00;2.83;;;6.10;99.90;;;;;;5056319;28;20036;-85
2022/01/22 09:52:46;;;;;;;16.92;2.67;;;6.10;99.90;;;;;;5069650;28;20041;-85
2022/01/22 09:55:14;;;;;;;18.38;2.85;;;6.10;99.90;;;;;;5040605;28;20044;-85
2022/01/22 09:57:40;;;;;;;19.23;2.92;;;6.20;99.90;;;;;;5073401;28;20481;-85
2022/01/22 10:00:07;;;;;;;18.83;3.30;;;6.20;99.90;;;;;;5056325;28;20124;-85
2022/01/22 10:02:44;;;;;;;13.45;3.63;;;6.20;99.90;;;;;;5066971;28;20032;-85
2022/01/22 10:05:34;;;;;;;16.95;2.70;;;6.30;99.90;;;;;;5075397;28;20134;-85
2022/01/22 10:08:24;;;;;;;15.48;3.17;;;6.30;99.90;;;;;;5092345;28;20028;-85
2022/01/22 10:10:50;;;;;;;12.48;3.00;;;6.30;99.90;;;;;;5062754;28;20070;-85
2022/01/22 10:13:37;;;;;;;17.33;3.28;;;6.30;99.90;;;;;;5074538;28;20032;-86
2022/01/22 10:16:19;;;;;;;13.55;2.60;;;6.30;99.90;;;;;;5070980;28;20047;-85
2022/01/22 10:19:06;;;;;;;11.38;2.45;;;6.30;99.90;;;;;;5064961;28;20112;-85
2022/01/22 10:21:31;;;;;;;15.27;3.08;;;6.30;99.90;;;;;;5087423;28;20044;-85
2022/01/22 10:24:25;;;;;;;20.77;3.45;;;6.30;99.90;;;;;;5085369;28;20040;-84
2022/01/22 10:27:32;;;;;;;20.40;3.40;;;6.30;99.90;;;;;;5091080;28;20032;-86
2022/01/22 10:30:03;;;;;;;14.55;3.15;;;6.30;99.90;;;;;;5074672;28;20071;-85
2022/01/22 10:32:43;;;;;;;14.05;3.10;;;6.30;99.90;;;;;;5080182;28;20036;-85
2022/01/22 10:35:11;;;;;;;11.85;2.80;;;6.30;99.90;;;;;;5048627;28;20044;-85
2022/01/22 10:37:37;;;;;;;18.50;3.33;;;6.30;99.90;;;;;;5074631;28;20105;-85
2022/01/22 10:40:16;;;;;;;16.92;3.40;;;6.30;99.90;;;;;;5073923;28;20051;-86
2022/01/22 10:42:42;;;;;;;10.23;2.78;;;6.40;99.90;;;;;;5067153;28;20033;-84
2022/01/22 10:45:12;;;;;;;14.48;2.72;;;6.30;99.90;;;;;;5072141;28;20039;-85
2022/01/22 10:47:37;;;;;;;15.65;3.05;;;6.30;99.90;;;;;;5056036;28;20119;-85
